sensor_id;sensor_type;location;lat;lon;timestamp;temperature;humidity
31387;DHT22;18017;50.124;8.688;2022-11-04T00:01:19;11.70;99.90
31387;DHT22;18017;50.124;8.688;2022-11-04T00:03:45;11.70;99.90
31387;DHT22;18017;50.124;8.688;2022-11-04T00:06:11;11.70;99.90
31387;DHT22;18017;50.124;8.688;2022-11-04T00:08:36;11.70;99.90
31387;DHT22;18017;50.124;8.688;2022-11-04T00:11:02;11.80;99.90
31387;DHT22;18017;50.124;8.688;2022-11-04T00:13:46;11.80;99.90
31387;DHT22;18017;50.124;8.688;2022-11-04T00:16:13;11.90;99.90
31387;DHT22;18017;50.124;8.688;2022-11-04T00:18:59;11.80;99.90
31387;DHT22;18017;50.124;8.688;2022-11-04T00:21:25;11.90;99.90
31387;DHT22;18017;50.124;8.688;2022-11-04T00:24:10;11.90;99.90
31387;DHT22;18017;50.124;8.688;2022-11-04T00:26:56;11.90;99.90
31387;DHT22;18017;50.124;8.688;2022-11-04T00:29:40;11.90;99.90
31387;DHT22;18017;50.124;8.688;2022-11-04T00:32:05;11.90;99.90
31387;DHT22;18017;50.124;8.688;2022-11-04T00:34:49;11.90;99.90
31387;DHT22;18017;50.124;8.688;2022-11-04T00:37:15;11.90;99.90
31387;DHT22;18017;50.124;8.688;2022-11-04T00:39:40;11.80;99.90
31387;DHT22;18017;50.124;8.688;2022-11-04T00:42:06;11.80;99.90
31387;DHT22;18017;50.124;8.688;2022-11-04T00:44:32;11.80;99.90
31387;DHT22;18017;50.124;8.688;2022-11-04T00:46:57;11.80;99.90
31387;DHT22;18017;50.124;8.688;2022-11-04T00:49:23;11.80;99.90
31387;DHT22;18017;50.124;8.688;2022-11-04T00:51:48;11.70;99.90
31387;DHT22;18017;50.124;8.688;2022-11-04T00:54:15;11.70;99.90
31387;DHT22;18017;50.124;8.688;2022-11-04T00:56:41;11.70;99.90
31387;DHT22;18017;50.124;8.688;2022-11-04T00:59:07;11.70;99.90
31387;DHT22;18017;50.124;8.688;2022-11-04T01:01:33;11.70;99.90
31387;DHT22;18017;50.124;8.688;2022-11-04T01:03:58;11.70;99.90
31387;DHT22;18017;50.124;8.688;2022-11-04T01:06:25;11.70;99.90
31387;DHT22;18017;50.124;8.688;2022-11-04T01:08:59;11.70;99.90
31387;DHT22;18017;50.124;8.688;2022-11-04T01:11:25;11.70;99.90
31387;DHT22;18017;50.124;8.688;2022-11-04T01:13:53;11.70;99.90
31387;DHT22;18017;50.124;8.688;2022-11-04T01:16:18;11.70;99.90
31387;DHT22;18017;50.124;8.688;2022-11-04T01:18:44;11.80;99.90
31387;DHT22;18017;50.124;8.688;2022-11-04T01:21:11;11.80;99.90
31387;DHT22;18017;50.124;8.688;2022-11-04T01:23:39;11.80;99.90
31387;DHT22;18017;50.124;8.688;2022-11-04T01:26:10;11.70;99.90
31387;DHT22;18017;50.124;8.688;2022-11-04T01:28:36;11.70;99.90
31387;DHT22;18017;50.124;8.688;2022-11-04T01:31:06;11.70;99.90
31387;DHT22;18017;50.124;8.688;2022-11-04T01:33:31;11.70;99.90
31387;DHT22;18017;50.124;8.688;2022-11-04T01:36:00;11.70;99.90
31387;DHT22;18017;50.124;8.688;2022-11-04T01:38:26;11.70;99.90
31387;DHT22;18017;50.124;8.688;2022-11-04T01:40:52;11.70;99.90
31387;DHT22;18017;50.124;8.688;2022-11-04T01:43:20;11.70;99.90
31387;DHT22;18017;50.124;8.688;2022-11-04T01:46:04;11.70;99.90
31387;DHT22;18017;50.124;8.688;2022-11-04T01:48:31;11.70;99.90
31387;DHT22;18017;50.124;8.688;2022-11-04T01:50:58;11.70;99.90
31387;DHT22;18017;50.124;8.688;2022-11-04T01:53:33;11.60;99.90
31387;DHT22;18017;50.124;8.688;2022-11-04T01:56:04;11.70;99.90
31387;DHT22;18017;50.124;8.688;2022-11-04T01:58:38;11.60;99.90
31387;DHT22;18017;50.124;8.688;2022-11-04T02:01:06;11.60;99.90
31387;DHT22;18017;50.124;8.688;2022-11-04T02:03:35;11.60;99.90
31387;DHT22;18017;50.124;8.688;2022-11-04T02:06:03;11.50;99.90
31387;DHT22;18017;50.124;8.688;2022-11-04T02:08:30;11.50;99.90
31387;DHT22;18017;50.124;8.688;2022-11-04T02:11:00;11.50;99.90
31387;DHT22;18017;50.124;8.688;2022-11-04T02:13:27;11.40;99.90
31387;DHT22;18017;50.124;8.688;2022-11-04T02:16:21;11.40;99.90
31387;DHT22;18017;50.124;8.688;2022-11-04T02:30:14;11.00;99.90
31387;DHT22;18017;50.124;8.688;2022-11-04T02:41:12;10.90;99.90
31387;DHT22;18017;50.124;8.688;2022-11-04T02:43:51;10.90;99.90
31387;DHT22;18017;50.124;8.688;2022-11-04T02:49:28;10.80;99.90
31387;DHT22;18017;50.124;8.688;2022-11-04T02:52:09;10.80;99.90
31387;DHT22;18017;50.124;8.688;2022-11-04T02:55:12;10.80;99.90
31387;DHT22;18017;50.124;8.688;2022-11-04T02:57:37;10.90;99.90
31387;DHT22;18017;50.124;8.688;2022-11-04T03:00:07;10.80;99.90
31387;DHT22;18017;50.124;8.688;2022-11-04T03:02:50;10.80;99.90
31387;DHT22;18017;50.124;8.688;2022-11-04T03:05:25;10.80;99.90
31387;DHT22;18017;50.124;8.688;2022-11-04T03:07:54;10.80;99.90
31387;DHT22;18017;50.124;8.688;2022-11-04T03:10:29;10.80;99.90
31387;DHT22;18017;50.124;8.688;2022-11-04T03:13:10;10.80;99.90
31387;DHT22;18017;50.124;8.688;2022-11-04T03:15:39;10.80;99.90
31387;DHT22;18017;50.124;8.688;2022-11-04T03:18:20;10.70;99.90
31387;DHT22;18017;50.124;8.688;2022-11-04T03:20:48;10.70;99.90
31387;DHT22;18017;50.124;8.688;2022-11-04T03:23:14;10.60;99.90
31387;DHT22;18017;50.124;8.688;2022-11-04T03:25:44;10.40;99.90
31387;DHT22;18017;50.124;8.688;2022-11-04T03:28:34;10.40;99.90
31387;DHT22;18017;50.124;8.688;2022-11-04T03:31:03;10.50;99.90
31387;DHT22;18017;50.124;8.688;2022-11-04T03:33:40;10.40;99.90
31387;DHT22;18017;50.124;8.688;2022-11-04T03:36:07;10.50;99.90
31387;DHT22;18017;50.124;8.688;2022-11-04T03:38:35;10.40;99.90
31387;DHT22;18017;50.124;8.688;2022-11-04T03:41:01;10.40;99.90
31387;DHT22;18017;50.124;8.688;2022-11-04T03:43:29;10.50;99.90
31387;DHT22;18017;50.124;8.688;2022-11-04T03:45:56;10.50;99.90
31387;DHT22;18017;50.124;8.688;2022-11-04T03:48:22;10.50;99.90
31387;DHT22;18017;50.124;8.688;2022-11-04T03:50:48;10.50;99.90
31387;DHT22;18017;50.124;8.688;2022-11-04T03:53:19;10.50;99.90
31387;DHT22;18017;50.124;8.688;2022-11-04T03:58:44;10.40;99.90
31387;DHT22;18017;50.124;8.688;2022-11-04T04:04:26;10.40;99.90
31387;DHT22;18017;50.124;8.688;2022-11-04T04:06:57;10.40;99.90
31387;DHT22;18017;50.124;8.688;2022-11-04T04:09:30;10.30;99.90
31387;DHT22;18017;50.124;8.688;2022-11-04T04:12:11;10.30;99.90
31387;DHT22;18017;50.124;8.688;2022-11-04T04:14:41;10.20;99.90
31387;DHT22;18017;50.124;8.688;2022-11-04T04:17:20;10.30;99.90
31387;DHT22;18017;50.124;8.688;2022-11-04T04:19:59;10.30;99.90
31387;DHT22;18017;50.124;8.688;2022-11-04T04:22:33;10.30;99.90
31387;DHT22;18017;50.124;8.688;2022-11-04T04:25:03;10.30;99.90
31387;DHT22;18017;50.124;8.688;2022-11-04T04:27:50;10.20;99.90
31387;DHT22;18017;50.124;8.688;2022-11-04T04:30:18;10.20;99.90
31387;DHT22;18017;50.124;8.688;2022-11-04T04:32:46;10.10;99.90
31387;DHT22;18017;50.124;8.688;2022-11-04T04:35:13;10.00;99.90
31387;DHT22;18017;50.124;8.688;2022-11-04T04:38:01;10.00;99.90
31387;DHT22;18017;50.124;8.688;2022-11-04T04:41:10;10.00;99.90
31387;DHT22;18017;50.124;8.688;2022-11-04T04:43:56;9.90;99.90
31387;DHT22;18017;50.124;8.688;2022-11-04T04:46:41;9.80;99.90
31387;DHT22;18017;50.124;8.688;2022-11-04T04:49:08;9.80;99.90
31387;DHT22;18017;50.124;8.688;2022-11-04T04:51:40;9.70;99.90
31387;DHT22;18017;50.124;8.688;2022-11-04T04:54:07;9.70;99.90
31387;DHT22;18017;50.124;8.688;2022-11-04T04:56:33;9.70;99.90
31387;DHT22;18017;50.124;8.688;2022-11-04T04:58:59;9.70;99.90
31387;DHT22;18017;50.124;8.688;2022-11-04T05:01:24;9.60;99.90
31387;DHT22;18017;50.124;8.688;2022-11-04T05:03:50;9.70;99.90
31387;DHT22;18017;50.124;8.688;2022-11-04T05:06:15;9.70;99.90
31387;DHT22;18017;50.124;8.688;2022-11-04T05:08:41;9.60;99.90
31387;DHT22;18017;50.124;8.688;2022-11-04T05:11:06;9.50;99.90
31387;DHT22;18017;50.124;8.688;2022-11-04T05:13:32;9.60;99.90
31387;DHT22;18017;50.124;8.688;2022-11-04T05:16:08;9.60;99.90
31387;DHT22;18017;50.124;8.688;2022-11-04T05:18:35;9.60;99.90
31387;DHT22;18017;50.124;8.688;2022-11-04T05:21:10;9.60;99.90
31387;DHT22;18017;50.124;8.688;2022-11-04T05:23:36;9.60;99.90
31387;DHT22;18017;50.124;8.688;2022-11-04T05:26:02;9.70;99.90
31387;DHT22;18017;50.124;8.688;2022-11-04T05:28:28;9.70;99.90
31387;DHT22;18017;50.124;8.688;2022-11-04T05:30:53;9.70;99.90
31387;DHT22;18017;50.124;8.688;2022-11-04T05:33:19;9.70;99.90
31387;DHT22;18017;50.124;8.688;2022-11-04T05:35:45;9.70;99.90
31387;DHT22;18017;50.124;8.688;2022-11-04T05:38:10;9.70;99.90
31387;DHT22;18017;50.124;8.688;2022-11-04T05:40:36;9.70;99.90
31387;DHT22;18017;50.124;8.688;2022-11-04T05:43:01;9.70;99.90
31387;DHT22;18017;50.124;8.688;2022-11-04T05:45:28;9.70;99.90
31387;DHT22;18017;50.124;8.688;2022-11-04T05:48:01;9.80;99.90
31387;DHT22;18017;50.124;8.688;2022-11-04T05:50:28;9.80;99.90
31387;DHT22;18017;50.124;8.688;2022-11-04T05:52:58;9.70;99.90
31387;DHT22;18017;50.124;8.688;2022-11-04T05:55:25;9.70;99.90
31387;DHT22;18017;50.124;8.688;2022-11-04T05:57:51;9.70;99.90
31387;DHT22;18017;50.124;8.688;2022-11-04T06:00:18;9.80;99.90
31387;DHT22;18017;50.124;8.688;2022-11-04T06:02:44;9.90;99.90
31387;DHT22;18017;50.124;8.688;2022-11-04T06:05:09;9.90;99.90
31387;DHT22;18017;50.124;8.688;2022-11-04T06:07:36;9.90;99.90
31387;DHT22;18017;50.124;8.688;2022-11-04T06:10:02;9.90;99.90
31387;DHT22;18017;50.124;8.688;2022-11-04T06:12:28;9.80;99.90
31387;DHT22;18017;50.124;8.688;2022-11-04T06:14:53;9.80;99.90
31387;DHT22;18017;50.124;8.688;2022-11-04T06:17:20;9.80;99.90
31387;DHT22;18017;50.124;8.688;2022-11-04T06:19:47;9.80;99.90
31387;DHT22;18017;50.124;8.688;2022-11-04T06:22:14;9.80;99.90
31387;DHT22;18017;50.124;8.688;2022-11-04T06:24:41;9.80;99.90
31387;DHT22;18017;50.124;8.688;2022-11-04T06:27:07;9.80;99.90
31387;DHT22;18017;50.124;8.688;2022-11-04T06:29:33;9.80;99.90
31387;DHT22;18017;50.124;8.688;2022-11-04T06:31:59;9.80;99.90
31387;DHT22;18017;50.124;8.688;2022-11-04T06:34:24;9.90;99.90
31387;DHT22;18017;50.124;8.688;2022-11-04T06:36:50;9.80;99.90
31387;DHT22;18017;50.124;8.688;2022-11-04T06:39:16;9.90;99.90
31387;DHT22;18017;50.124;8.688;2022-11-04T06:41:41;9.80;99.90
31387;DHT22;18017;50.124;8.688;2022-11-04T06:44:07;9.80;99.90
31387;DHT22;18017;50.124;8.688;2022-11-04T06:46:39;9.80;99.90
31387;DHT22;18017;50.124;8.688;2022-11-04T06:49:13;9.90;99.90
31387;DHT22;18017;50.124;8.688;2022-11-04T06:51:40;9.90;99.90
31387;DHT22;18017;50.124;8.688;2022-11-04T06:54:06;9.90;99.90
31387;DHT22;18017;50.124;8.688;2022-11-04T06:56:31;9.90;99.90
31387;DHT22;18017;50.124;8.688;2022-11-04T06:58:57;10.00;99.90
31387;DHT22;18017;50.124;8.688;2022-11-04T07:01:25;10.00;99.90
31387;DHT22;18017;50.124;8.688;2022-11-04T07:03:53;10.10;99.90
31387;DHT22;18017;50.124;8.688;2022-11-04T07:06:20;10.10;99.90
31387;DHT22;18017;50.124;8.688;2022-11-04T07:08:46;10.10;99.90
31387;DHT22;18017;50.124;8.688;2022-11-04T07:11:12;10.20;99.90
31387;DHT22;18017;50.124;8.688;2022-11-04T07:13:38;10.30;99.90
31387;DHT22;18017;50.124;8.688;2022-11-04T07:16:06;10.30;99.90
31387;DHT22;18017;50.124;8.688;2022-11-04T07:18:32;10.30;99.90
31387;DHT22;18017;50.124;8.688;2022-11-04T07:20:58;10.40;99.90
31387;DHT22;18017;50.124;8.688;2022-11-04T07:23:24;10.50;99.90
31387;DHT22;18017;50.124;8.688;2022-11-04T07:25:49;10.50;99.90
31387;DHT22;18017;50.124;8.688;2022-11-04T07:28:15;10.60;99.90
31387;DHT22;18017;50.124;8.688;2022-11-04T07:30:41;10.70;99.90
31387;DHT22;18017;50.124;8.688;2022-11-04T07:33:07;10.70;99.90
31387;DHT22;18017;50.124;8.688;2022-11-04T07:35:33;10.80;99.90
31387;DHT22;18017;50.124;8.688;2022-11-04T07:37:58;10.80;99.90
31387;DHT22;18017;50.124;8.688;2022-11-04T07:40:24;10.90;99.90
31387;DHT22;18017;50.124;8.688;2022-11-04T07:42:50;11.00;99.90
31387;DHT22;18017;50.124;8.688;2022-11-04T07:45:15;11.00;99.90
31387;DHT22;18017;50.124;8.688;2022-11-04T07:47:41;11.10;99.90
31387;DHT22;18017;50.124;8.688;2022-11-04T07:50:07;11.10;99.90
31387;DHT22;18017;50.124;8.688;2022-11-04T07:52:32;11.20;99.90
31387;DHT22;18017;50.124;8.688;2022-11-04T07:54:58;11.30;99.90
31387;DHT22;18017;50.124;8.688;2022-11-04T07:57:23;11.40;99.90
31387;DHT22;18017;50.124;8.688;2022-11-04T07:59:49;11.40;99.90
31387;DHT22;18017;50.124;8.688;2022-11-04T08:02:15;11.50;99.90
31387;DHT22;18017;50.124;8.688;2022-11-04T08:04:40;11.40;99.90
31387;DHT22;18017;50.124;8.688;2022-11-04T08:07:09;11.40;99.90
31387;DHT22;18017;50.124;8.688;2022-11-04T08:09:35;11.40;99.90
31387;DHT22;18017;50.124;8.688;2022-11-04T08:12:04;11.40;99.90
31387;DHT22;18017;50.124;8.688;2022-11-04T08:14:30;11.40;99.90
31387;DHT22;18017;50.124;8.688;2022-11-04T08:16:56;11.40;99.90
31387;DHT22;18017;50.124;8.688;2022-11-04T08:19:22;11.30;99.90
31387;DHT22;18017;50.124;8.688;2022-11-04T08:21:47;11.30;99.90
31387;DHT22;18017;50.124;8.688;2022-11-04T08:24:13;11.30;99.90
31387;DHT22;18017;50.124;8.688;2022-11-04T08:26:38;11.30;99.90
31387;DHT22;18017;50.124;8.688;2022-11-04T08:29:07;11.20;99.90
31387;DHT22;18017;50.124;8.688;2022-11-04T08:31:33;11.20;99.90
31387;DHT22;18017;50.124;8.688;2022-11-04T08:33:59;11.20;99.90
31387;DHT22;18017;50.124;8.688;2022-11-04T08:36:30;11.20;99.90
31387;DHT22;18017;50.124;8.688;2022-11-04T08:38:57;11.20;99.90
31387;DHT22;18017;50.124;8.688;2022-11-04T08:41:25;11.20;99.90
31387;DHT22;18017;50.124;8.688;2022-11-04T08:43:54;11.30;99.90
31387;DHT22;18017;50.124;8.688;2022-11-04T08:46:20;11.40;99.90
31387;DHT22;18017;50.124;8.688;2022-11-04T08:48:46;11.60;99.90
31387;DHT22;18017;50.124;8.688;2022-11-04T08:51:17;11.50;99.90
31387;DHT22;18017;50.124;8.688;2022-11-04T08:53:43;11.50;99.90
31387;DHT22;18017;50.124;8.688;2022-11-04T08:56:14;11.50;99.90
31387;DHT22;18017;50.124;8.688;2022-11-04T08:58:40;11.40;99.90
31387;DHT22;18017;50.124;8.688;2022-11-04T09:01:07;11.30;99.90
31387;DHT22;18017;50.124;8.688;2022-11-04T09:03:32;11.30;99.90
31387;DHT22;18017;50.124;8.688;2022-11-04T09:06:00;11.30;99.90
31387;DHT22;18017;50.124;8.688;2022-11-04T09:08:25;11.30;99.90
31387;DHT22;18017;50.124;8.688;2022-11-04T09:10:51;11.20;99.90
31387;DHT22;18017;50.124;8.688;2022-11-04T09:13:16;11.30;99.90
31387;DHT22;18017;50.124;8.688;2022-11-04T09:15:42;11.30;99.90
31387;DHT22;18017;50.124;8.688;2022-11-04T09:18:08;11.40;99.90
31387;DHT22;18017;50.124;8.688;2022-11-04T09:20:35;11.40;99.90
31387;DHT22;18017;50.124;8.688;2022-11-04T09:23:04;11.50;99.90
31387;DHT22;18017;50.124;8.688;2022-11-04T09:25:30;11.60;99.90
31387;DHT22;18017;50.124;8.688;2022-11-04T09:27:57;11.80;99.90
31387;DHT22;18017;50.124;8.688;2022-11-04T09:30:23;12.20;99.90
31387;DHT22;18017;50.124;8.688;2022-11-04T09:32:48;12.40;99.90
31387;DHT22;18017;50.124;8.688;2022-11-04T09:35:14;12.60;99.90
31387;DHT22;18017;50.124;8.688;2022-11-04T09:37:42;12.80;99.90
31387;DHT22;18017;50.124;8.688;2022-11-04T09:40:13;12.80;99.90
31387;DHT22;18017;50.124;8.688;2022-11-04T09:45:16;13.60;99.90
31387;DHT22;18017;50.124;8.688;2022-11-04T09:47:45;14.80;99.90
31387;DHT22;18017;50.124;8.688;2022-11-04T09:50:22;15.90;99.90
31387;DHT22;18017;50.124;8.688;2022-11-04T09:52:54;16.00;99.90
31387;DHT22;18017;50.124;8.688;2022-11-04T09:58:02;15.10;99.90
31387;DHT22;18017;50.124;8.688;2022-11-04T10:00:31;14.60;99.90
31387;DHT22;18017;50.124;8.688;2022-11-04T10:03:17;14.20;99.90
31387;DHT22;18017;50.124;8.688;2022-11-04T10:08:44;13.50;99.90
31387;DHT22;18017;50.124;8.688;2022-11-04T10:16:45;13.20;99.90
31387;DHT22;18017;50.124;8.688;2022-11-04T10:19:29;13.30;99.90
31387;DHT22;18017;50.124;8.688;2022-11-04T10:22:17;13.80;99.90
31387;DHT22;18017;50.124;8.688;2022-11-04T10:25:11;14.70;99.90
31387;DHT22;18017;50.124;8.688;2022-11-04T10:27:41;15.50;99.90
31387;DHT22;18017;50.124;8.688;2022-11-04T10:30:15;16.70;99.90
31387;DHT22;18017;50.124;8.688;2022-11-04T10:35:51;16.90;99.90
31387;DHT22;18017;50.124;8.688;2022-11-04T10:41:22;17.00;99.90
31387;DHT22;18017;50.124;8.688;2022-11-04T10:44:03;17.90;99.90
31387;DHT22;18017;50.124;8.688;2022-11-04T10:46:45;18.10;99.90
31387;DHT22;18017;50.124;8.688;2022-11-04T10:51:44;19.70;99.90
31387;DHT22;18017;50.124;8.688;2022-11-04T10:54:10;20.00;99.90
31387;DHT22;18017;50.124;8.688;2022-11-04T10:56:41;21.40;99.90
31387;DHT22;18017;50.124;8.688;2022-11-04T11:00:00;21.40;99.90
31387;DHT22;18017;50.124;8.688;2022-11-04T11:02:01;22.50;99.90
31387;DHT22;18017;50.124;8.688;2022-11-04T11:04:33;21.50;99.90
31387;DHT22;18017;50.124;8.688;2022-11-04T11:07:01;21.40;99.90
31387;DHT22;18017;50.124;8.688;2022-11-04T11:09:35;19.20;99.90
31387;DHT22;18017;50.124;8.688;2022-11-04T11:12:04;17.40;99.90
31387;DHT22;18017;50.124;8.688;2022-11-04T11:14:36;16.80;99.90
31387;DHT22;18017;50.124;8.688;2022-11-04T11:19:49;19.60;99.90
31387;DHT22;18017;50.124;8.688;2022-11-04T11:22:47;21.10;99.90
31387;DHT22;18017;50.124;8.688;2022-11-04T11:25:19;20.80;99.90
31387;DHT22;18017;50.124;8.688;2022-11-04T11:27:51;19.20;99.90
31387;DHT22;18017;50.124;8.688;2022-11-04T11:30:19;18.30;99.90
31387;DHT22;18017;50.124;8.688;2022-11-04T11:32:45;17.60;99.90
31387;DHT22;18017;50.124;8.688;2022-11-04T11:35:18;17.40;99.90
31387;DHT22;18017;50.124;8.688;2022-11-04T11:37:46;17.40;99.90
31387;DHT22;18017;50.124;8.688;2022-11-04T11:40:29;17.50;99.90
31387;DHT22;18017;50.124;8.688;2022-11-04T11:42:57;17.20;99.90
31387;DHT22;18017;50.124;8.688;2022-11-04T11:45:24;18.40;99.90
31387;DHT22;18017;50.124;8.688;2022-11-04T11:47:51;20.10;99.90
31387;DHT22;18017;50.124;8.688;2022-11-04T11:50:27;19.30;99.90
31387;DHT22;18017;50.124;8.688;2022-11-04T11:53:18;20.90;99.90
31387;DHT22;18017;50.124;8.688;2022-11-04T11:56:02;21.70;99.90
31387;DHT22;18017;50.124;8.688;2022-11-04T11:58:44;21.00;99.90
31387;DHT22;18017;50.124;8.688;2022-11-04T12:01:16;21.10;99.90
31387;DHT22;18017;50.124;8.688;2022-11-04T12:03:45;21.20;99.90
31387;DHT22;18017;50.124;8.688;2022-11-04T12:06:24;20.90;99.90
31387;DHT22;18017;50.124;8.688;2022-11-04T12:08:57;21.20;99.90
31387;DHT22;18017;50.124;8.688;2022-11-04T12:11:57;20.00;99.90
31387;DHT22;18017;50.124;8.688;2022-11-04T12:19:49;21.60;99.90
31387;DHT22;18017;50.124;8.688;2022-11-04T12:22:24;21.60;99.90
31387;DHT22;18017;50.124;8.688;2022-11-04T12:25:02;20.90;99.90
31387;DHT22;18017;50.124;8.688;2022-11-04T12:27:47;19.50;99.90
31387;DHT22;18017;50.124;8.688;2022-11-04T12:30:19;18.50;99.90
31387;DHT22;18017;50.124;8.688;2022-11-04T12:36:02;17.30;99.90
31387;DHT22;18017;50.124;8.688;2022-11-04T12:38:52;16.80;99.90
31387;DHT22;18017;50.124;8.688;2022-11-04T12:41:24;16.40;99.90
31387;DHT22;18017;50.124;8.688;2022-11-04T12:46:43;15.80;99.90
31387;DHT22;18017;50.124;8.688;2022-11-04T12:49:59;15.50;99.90
31387;DHT22;18017;50.124;8.688;2022-11-04T12:53:00;15.40;99.90
31387;DHT22;18017;50.124;8.688;2022-11-04T13:00:58;15.60;99.90
31387;DHT22;18017;50.124;8.688;2022-11-04T13:06:07;18.30;99.90
31387;DHT22;18017;50.124;8.688;2022-11-04T13:08:58;18.70;99.90
31387;DHT22;18017;50.124;8.688;2022-11-04T13:11:32;18.10;99.90
31387;DHT22;18017;50.124;8.688;2022-11-04T13:14:13;17.60;99.90
31387;DHT22;18017;50.124;8.688;2022-11-04T13:16:45;17.10;99.90
31387;DHT22;18017;50.124;8.688;2022-11-04T13:19:39;16.60;99.90
31387;DHT22;18017;50.124;8.688;2022-11-04T13:22:11;16.30;99.90
31387;DHT22;18017;50.124;8.688;2022-11-04T13:24:50;16.00;99.90
31387;DHT22;18017;50.124;8.688;2022-11-04T13:27:20;15.70;99.90
31387;DHT22;18017;50.124;8.688;2022-11-04T13:29:47;15.50;99.90
31387;DHT22;18017;50.124;8.688;2022-11-04T13:32:28;15.30;99.90
31387;DHT22;18017;50.124;8.688;2022-11-04T13:40:28;14.90;99.90
31387;DHT22;18017;50.124;8.688;2022-11-04T13:45:56;15.00;99.90
31387;DHT22;18017;50.124;8.688;2022-11-04T13:48:25;14.90;99.90
31387;DHT22;18017;50.124;8.688;2022-11-04T13:51:11;14.90;99.90
31387;DHT22;18017;50.124;8.688;2022-11-04T13:53:47;14.70;99.90
31387;DHT22;18017;50.124;8.688;2022-11-04T13:58:58;14.60;99.90
31387;DHT22;18017;50.124;8.688;2022-11-04T14:01:28;14.50;99.90
31387;DHT22;18017;50.124;8.688;2022-11-04T14:04:02;14.50;99.90
31387;DHT22;18017;50.124;8.688;2022-11-04T14:14:41;14.30;99.90
31387;DHT22;18017;50.124;8.688;2022-11-04T14:20:00;14.10;99.90
31387;DHT22;18017;50.124;8.688;2022-11-04T14:22:36;14.00;99.90
31387;DHT22;18017;50.124;8.688;2022-11-04T14:25:31;14.00;99.90
31387;DHT22;18017;50.124;8.688;2022-11-04T14:28:16;13.90;99.90
31387;DHT22;18017;50.124;8.688;2022-11-04T14:30:51;13.80;99.90
31387;DHT22;18017;50.124;8.688;2022-11-04T14:44:37;13.60;99.90
31387;DHT22;18017;50.124;8.688;2022-11-04T14:49:45;13.50;99.90
31387;DHT22;18017;50.124;8.688;2022-11-04T14:52:33;13.50;99.90
31387;DHT22;18017;50.124;8.688;2022-11-04T14:57:29;13.30;99.90
31387;DHT22;18017;50.124;8.688;2022-11-04T15:00:36;13.40;99.90
31387;DHT22;18017;50.124;8.688;2022-11-04T15:03:21;13.40;99.90
31387;DHT22;18017;50.124;8.688;2022-11-04T15:05:54;13.30;99.90
31387;DHT22;18017;50.124;8.688;2022-11-04T15:11:18;13.40;99.90
31387;DHT22;18017;50.124;8.688;2022-11-04T15:14:22;13.40;99.90
31387;DHT22;18017;50.124;8.688;2022-11-04T15:16:54;13.30;99.90
31387;DHT22;18017;50.124;8.688;2022-11-04T15:19:31;13.30;99.90
31387;DHT22;18017;50.124;8.688;2022-11-04T15:21:59;13.20;99.90
31387;DHT22;18017;50.124;8.688;2022-11-04T15:24:26;13.10;99.90
31387;DHT22;18017;50.124;8.688;2022-11-04T15:26:54;13.00;99.90
31387;DHT22;18017;50.124;8.688;2022-11-04T15:29:23;13.00;99.90
31387;DHT22;18017;50.124;8.688;2022-11-04T15:32:00;12.90;99.90
31387;DHT22;18017;50.124;8.688;2022-11-04T15:34:27;12.80;99.90
31387;DHT22;18017;50.124;8.688;2022-11-04T15:36:58;12.80;99.90
31387;DHT22;18017;50.124;8.688;2022-11-04T15:39:30;12.80;99.90
31387;DHT22;18017;50.124;8.688;2022-11-04T15:42:02;12.70;99.90
31387;DHT22;18017;50.124;8.688;2022-11-04T15:44:52;12.60;99.90
31387;DHT22;18017;50.124;8.688;2022-11-04T15:49:46;12.50;99.90
31387;DHT22;18017;50.124;8.688;2022-11-04T15:52:26;12.60;99.90
31387;DHT22;18017;50.124;8.688;2022-11-04T15:54:53;12.60;99.90
31387;DHT22;18017;50.124;8.688;2022-11-04T15:57:22;12.60;99.90
31387;DHT22;18017;50.124;8.688;2022-11-04T16:00:04;12.70;99.90
31387;DHT22;18017;50.124;8.688;2022-11-04T16:02:36;12.70;99.90
31387;DHT22;18017;50.124;8.688;2022-11-04T16:07:36;12.70;99.90
31387;DHT22;18017;50.124;8.688;2022-11-04T16:12:48;12.50;99.90
31387;DHT22;18017;50.124;8.688;2022-11-04T16:17:59;12.50;99.90
31387;DHT22;18017;50.124;8.688;2022-11-04T16:20:26;12.50;99.90
31387;DHT22;18017;50.124;8.688;2022-11-04T16:22:57;12.50;99.90
31387;DHT22;18017;50.124;8.688;2022-11-04T16:25:28;12.40;99.90
31387;DHT22;18017;50.124;8.688;2022-11-04T16:27:54;12.40;99.90
31387;DHT22;18017;50.124;8.688;2022-11-04T16:30:22;12.40;99.90
31387;DHT22;18017;50.124;8.688;2022-11-04T16:32:51;12.40;99.90
31387;DHT22;18017;50.124;8.688;2022-11-04T16:35:22;12.40;99.90
31387;DHT22;18017;50.124;8.688;2022-11-04T16:37:49;12.40;99.90
31387;DHT22;18017;50.124;8.688;2022-11-04T16:40:16;12.40;99.90
31387;DHT22;18017;50.124;8.688;2022-11-04T16:42:43;12.40;99.90
31387;DHT22;18017;50.124;8.688;2022-11-04T16:45:18;12.40;99.90
31387;DHT22;18017;50.124;8.688;2022-11-04T16:47:45;12.40;99.90
31387;DHT22;18017;50.124;8.688;2022-11-04T16:50:13;12.40;99.90
31387;DHT22;18017;50.124;8.688;2022-11-04T16:52:40;12.50;99.90
31387;DHT22;18017;50.124;8.688;2022-11-04T16:55:06;12.50;99.90
31387;DHT22;18017;50.124;8.688;2022-11-04T16:57:32;12.50;99.90
31387;DHT22;18017;50.124;8.688;2022-11-04T16:59:58;12.40;99.90
31387;DHT22;18017;50.124;8.688;2022-11-04T17:02:28;12.40;99.90
31387;DHT22;18017;50.124;8.688;2022-11-04T17:05:02;12.40;99.90
31387;DHT22;18017;50.124;8.688;2022-11-04T17:07:28;12.50;99.90
31387;DHT22;18017;50.124;8.688;2022-11-04T17:09:53;12.50;99.90
31387;DHT22;18017;50.124;8.688;2022-11-04T17:12:19;12.40;99.90
31387;DHT22;18017;50.124;8.688;2022-11-04T17:14:44;12.40;99.90
31387;DHT22;18017;50.124;8.688;2022-11-04T17:17:10;12.40;99.90
31387;DHT22;18017;50.124;8.688;2022-11-04T17:19:36;12.40;99.90
31387;DHT22;18017;50.124;8.688;2022-11-04T17:22:03;12.40;99.90
31387;DHT22;18017;50.124;8.688;2022-11-04T17:24:30;12.40;99.90
31387;DHT22;18017;50.124;8.688;2022-11-04T17:26:55;12.40;99.90
31387;DHT22;18017;50.124;8.688;2022-11-04T17:29:21;12.30;99.90
31387;DHT22;18017;50.124;8.688;2022-11-04T17:31:47;12.30;99.90
31387;DHT22;18017;50.124;8.688;2022-11-04T17:34:12;12.30;99.90
31387;DHT22;18017;50.124;8.688;2022-11-04T17:36:38;12.30;99.90
31387;DHT22;18017;50.124;8.688;2022-11-04T17:39:03;12.30;99.90
31387;DHT22;18017;50.124;8.688;2022-11-04T17:41:29;12.20;99.90
31387;DHT22;18017;50.124;8.688;2022-11-04T17:44:13;12.20;99.90
31387;DHT22;18017;50.124;8.688;2022-11-04T17:46:39;12.20;99.90
31387;DHT22;18017;50.124;8.688;2022-11-04T17:49:21;12.20;99.90
31387;DHT22;18017;50.124;8.688;2022-11-04T17:51:50;12.10;99.90
31387;DHT22;18017;50.124;8.688;2022-11-04T17:54:18;12.10;99.90
31387;DHT22;18017;50.124;8.688;2022-11-04T17:56:44;12.00;99.90
31387;DHT22;18017;50.124;8.688;2022-11-04T17:59:10;12.00;99.90
31387;DHT22;18017;50.124;8.688;2022-11-04T18:01:36;12.00;99.90